Time;durP1;ratioP1;P1;durP2;ratioP2;P2;SDS_P1;SDS_P2;PMS_P1;PMS_P2;Temp;Humidity;BMP_temperature;BMP_pressure;BME280_temperature;BME280_humidity;BME280_pressure;Samples;Min_cycle;Max_cycle;Signal;HPM_P1;HPM_P2
2022/08/17 00:00:47;;;;;;;12.73;11.83;;;;;;;;;;4959503;28;20828;-89
2022/08/17 00:03:19;;;;;;;12.27;11.07;;;;;;;;;;4975790;28;20787;-89
2022/08/17 00:05:50;;;;;;;12.60;11.80;;;;;;;;;;4965843;28;20463;-89
2022/08/17 00:08:19;;;;;;;13.37;12.27;;;;;;;;;;4976325;28;20436;-90
2022/08/17 00:10:45;;;;;;;13.27;12.37;;;;;;;;;;4974624;28;20436;-89
2022/08/17 00:13:20;;;;;;;12.50;11.20;;;;;;;;;;4960697;28;20893;-89
2022/08/17 00:15:46;;;;;;;13.50;11.83;;;;;;;;;;4971730;28;20436;-89
2022/08/17 00:18:12;;;;;;;11.93;11.23;;;;;;;;;;4972232;28;20787;-89
2022/08/17 00:20:39;;;;;;;11.40;10.80;;;;;;;;;;4970510;28;20464;-90
2022/08/17 00:23:06;;;;;;;11.40;10.30;;;;;;;;;;4973109;28;20420;-90
2022/08/17 00:25:32;;;;;;;12.10;11.10;;;;;;;;;;4972055;28;20437;-90
2022/08/17 00:27:58;;;;;;;13.03;12.03;;;;;;;;;;4958425;28;20546;-88
2022/08/17 00:30:24;;;;;;;11.87;11.00;;;;;;;;;;4963436;28;20452;-89
2022/08/17 00:32:50;;;;;;;12.70;11.80;;;;;;;;;;4960620;28;20408;-89
2022/08/17 00:35:17;;;;;;;11.27;10.53;;;;;;;;;;4968883;28;20590;-89
2022/08/17 00:37:43;;;;;;;12.07;11.37;;;;;;;;;;4967565;28;20595;-89
2022/08/17 00:40:11;;;;;;;14.60;13.50;;;;;;;;;;4971511;28;20555;-89
2022/08/17 00:42:39;;;;;;;13.03;12.07;;;;;;;;;;4973914;28;20465;-89
2022/08/17 00:45:07;;;;;;;15.70;11.77;;;;;;;;;;4965318;28;20440;-89
2022/08/17 00:47:34;;;;;;;13.13;12.33;;;;;;;;;;4965382;28;20437;-89
2022/08/17 00:50:07;;;;;;;12.53;11.73;;;;;;;;;;4969752;28;20513;-89
2022/08/17 00:52:39;;;;;;;11.80;11.00;;;;;;;;;;4965402;28;20474;-89
2022/08/17 00:55:06;;;;;;;11.90;11.07;;;;;;;;;;4985923;28;20435;-86
2022/08/17 00:57:34;;;;;;;12.20;11.40;;;;;;;;;;4974572;28;20471;-88
2022/08/17 01:00:04;;;;;;;12.37;11.67;;;;;;;;;;4973234;28;21033;-87
2022/08/17 01:02:33;;;;;;;16.67;15.17;;;;;;;;;;4950626;28;20421;-89
2022/08/17 01:04:59;;;;;;;12.20;11.50;;;;;;;;;;4972692;28;20479;-88
2022/08/17 01:07:26;;;;;;;11.80;11.03;;;;;;;;;;4952820;28;20484;-88
2022/08/17 01:09:53;;;;;;;13.57;12.47;;;;;;;;;;4965716;28;20436;-88
2022/08/17 01:12:18;;;;;;;12.97;12.13;;;;;;;;;;4952952;28;20528;-88
2022/08/17 01:14:44;;;;;;;13.33;12.50;;;;;;;;;;4972593;28;20523;-88
2022/08/17 01:17:11;;;;;;;12.80;11.83;;;;;;;;;;4972722;28;20444;-88
2022/08/17 01:19:38;;;;;;;13.20;12.10;;;;;;;;;;4975654;28;20472;-87
2022/08/17 01:22:04;;;;;;;13.60;12.60;;;;;;;;;;4963809;28;21061;-88
2022/08/17 01:24:30;;;;;;;12.90;12.07;;;;;;;;;;4958128;28;20461;-88
2022/08/17 01:26:56;;;;;;;13.60;12.23;;;;;;;;;;4969870;28;20497;-87
2022/08/17 01:29:23;;;;;;;15.67;13.60;;;;;;;;;;5007054;28;20814;-88
2022/08/17 01:31:54;;;;;;;13.50;12.60;;;;;;;;;;4984709;28;20450;-88
2022/08/17 01:34:20;;;;;;;12.27;11.40;;;;;;;;;;4982173;28;20463;-87
2022/08/17 01:36:48;;;;;;;13.30;12.60;;;;;;;;;;4998324;28;20439;-88
2022/08/17 01:39:20;;;;;;;15.77;13.87;;;;;;;;;;4987331;28;20440;-87
2022/08/17 01:41:48;;;;;;;14.27;12.90;;;;;;;;;;4982897;28;20456;-88
2022/08/17 01:44:15;;;;;;;13.87;12.93;;;;;;;;;;4973004;28;20440;-88
2022/08/17 01:46:41;;;;;;;13.40;12.40;;;;;;;;;;4978384;28;20515;-88
2022/08/17 01:49:09;;;;;;;14.20;13.07;;;;;;;;;;4977460;28;20443;-87
2022/08/17 01:51:37;;;;;;;14.47;13.10;;;;;;;;;;4971469;28;20447;-89
2022/08/17 01:54:05;;;;;;;14.97;13.67;;;;;;;;;;4965265;28;20507;-87
2022/08/17 01:56:32;;;;;;;15.30;13.80;;;;;;;;;;4992106;28;20425;-87
2022/08/17 01:58:58;;;;;;;14.73;13.47;;;;;;;;;;4975365;28;20520;-88
2022/08/17 02:01:26;;;;;;;13.57;12.50;;;;;;;;;;4963089;28;20513;-88
2022/08/17 02:03:52;;;;;;;13.73;12.83;;;;;;;;;;4976334;28;20671;-88
2022/08/17 02:06:19;;;;;;;14.37;13.17;;;;;;;;;;4974313;28;20448;-88
2022/08/17 02:08:45;;;;;;;14.13;13.33;;;;;;;;;;4969686;28;20452;-88
2022/08/17 02:11:14;;;;;;;13.20;12.33;;;;;;;;;;4954376;28;20505;-88
2022/08/17 02:13:42;;;;;;;14.07;13.07;;;;;;;;;;4955905;28;20429;-88
2022/08/17 02:16:08;;;;;;;14.03;13.13;;;;;;;;;;4963650;28;21093;-87
2022/08/17 02:18:34;;;;;;;13.97;13.07;;;;;;;;;;4979755;28;20432;-87
2022/08/17 02:21:00;;;;;;;13.73;12.33;;;;;;;;;;4973697;28;20487;-88
2022/08/17 02:23:28;;;;;;;14.70;13.70;;;;;;;;;;4981358;28;20476;-88
2022/08/17 02:25:55;;;;;;;14.97;13.50;;;;;;;;;;4969409;28;20441;-89
2022/08/17 02:28:21;;;;;;;14.03;13.07;;;;;;;;;;4997710;28;20432;-90
2022/08/17 02:30:47;;;;;;;14.60;13.40;;;;;;;;;;4986363;28;20437;-87
2022/08/17 02:33:13;;;;;;;15.43;14.30;;;;;;;;;;4978172;28;20432;-87
2022/08/17 02:35:39;;;;;;;15.00;13.83;;;;;;;;;;4977353;28;20436;-88
2022/08/17 02:38:07;;;;;;;14.77;13.53;;;;;;;;;;4976162;28;20440;-88
2022/08/17 02:40:33;;;;;;;15.40;14.30;;;;;;;;;;4973902;28;20479;-88
2022/08/17 02:42:59;;;;;;;16.30;14.93;;;;;;;;;;4975456;28;20990;-88
2022/08/17 02:45:26;;;;;;;14.80;13.70;;;;;;;;;;4976026;28;21155;-88
2022/08/17 02:47:52;;;;;;;14.17;13.20;;;;;;;;;;4978590;28;20789;-87
2022/08/17 02:50:19;;;;;;;15.50;14.20;;;;;;;;;;4977206;28;20515;-88
2022/08/17 02:52:45;;;;;;;14.23;13.23;;;;;;;;;;4959898;28;20448;-87
2022/08/17 02:55:16;;;;;;;15.03;13.73;;;;;;;;;;4977724;28;20800;-88
2022/08/17 02:57:43;;;;;;;15.40;14.10;;;;;;;;;;4977263;28;21029;-88
2022/08/17 03:00:12;;;;;;;14.40;13.27;;;;;;;;;;4980761;28;20460;-87
2022/08/17 03:02:42;;;;;;;15.83;14.33;;;;;;;;;;4979193;28;20437;-88
2022/08/17 03:05:09;;;;;;;15.93;14.53;;;;;;;;;;4990070;28;20452;-88
2022/08/17 03:07:37;;;;;;;14.43;13.53;;;;;;;;;;4975901;28;20989;-88
2022/08/17 03:10:04;;;;;;;14.33;13.33;;;;;;;;;;4970445;28;20425;-88
2022/08/17 03:12:32;;;;;;;15.57;14.30;;;;;;;;;;4991422;28;20432;-87
2022/08/17 03:15:02;;;;;;;15.07;13.87;;;;;;;;;;4986417;28;20411;-88
2022/08/17 03:17:28;;;;;;;14.27;13.37;;;;;;;;;;4974546;28;20432;-88
2022/08/17 03:19:54;;;;;;;16.10;14.90;;;;;;;;;;4975829;28;20479;-88
2022/08/17 03:22:20;;;;;;;15.53;14.43;;;;;;;;;;4989924;28;20446;-88
2022/08/17 03:24:46;;;;;;;15.20;14.20;;;;;;;;;;4974240;28;20456;-89
2022/08/17 03:27:12;;;;;;;15.73;14.43;;;;;;;;;;4973925;28;20507;-88
2022/08/17 03:29:38;;;;;;;15.63;14.63;;;;;;;;;;4982040;28;20437;-88
2022/08/17 03:32:14;;;;;;;15.23;14.13;;;;;;;;;;4967444;28;20436;-87
2022/08/17 03:34:40;;;;;;;14.90;13.80;;;;;;;;;;4987886;28;20543;-88
2022/08/17 03:37:06;;;;;;;14.77;13.87;;;;;;;;;;4966603;28;20467;-89
2022/08/17 03:39:32;;;;;;;14.80;13.70;;;;;;;;;;4973449;28;20914;-88
2022/08/17 03:42:19;;;;;;;14.73;13.63;;;;;;;;;;4972673;28;20974;-88
2022/08/17 03:44:53;;;;;;;14.83;13.83;;;;;;;;;;4955353;28;20437;-88
2022/08/17 03:56:41;;;;;;;15.03;13.83;;;;;;;;;;4984063;28;20455;-88
2022/08/17 03:58:37;;;;;;;24.60;22.60;;;;;;;;;;4992110;28;20412;-87
2022/08/17 04:01:04;;;;;;;15.63;14.33;;;;;;;;;;4960699;28;21218;-89
2022/08/17 04:03:30;;;;;;;15.33;14.23;;;;;;;;;;4973400;28;21114;-89
2022/08/17 04:05:56;;;;;;;15.57;13.93;;;;;;;;;;4970412;28;20476;-88
2022/08/17 04:08:22;;;;;;;15.00;13.90;;;;;;;;;;4962489;28;20460;-89
2022/08/17 04:10:48;;;;;;;14.87;13.87;;;;;;;;;;4971382;28;20933;-88
2022/08/17 04:13:15;;;;;;;15.27;14.10;;;;;;;;;;4963138;28;20487;-89
2022/08/17 04:15:41;;;;;;;15.67;14.67;;;;;;;;;;4954767;28;20429;-87
2022/08/17 04:18:07;;;;;;;15.07;13.97;;;;;;;;;;4980198;28;20439;-88
2022/08/17 04:20:33;;;;;;;14.30;13.30;;;;;;;;;;4973818;28;20460;-88
2022/08/17 04:23:02;;;;;;;17.30;14.67;;;;;;;;;;4982058;28;20510;-88
2022/08/17 04:25:29;;;;;;;16.27;14.60;;;;;;;;;;4991567;28;20523;-88
2022/08/17 04:27:55;;;;;;;14.20;12.83;;;;;;;;;;4284773;28;10000721;-87
2022/08/17 04:30:22;;;;;;;15.40;14.20;;;;;;;;;;4971245;28;20177;-89
2022/08/17 04:32:51;;;;;;;14.80;13.83;;;;;;;;;;4973454;28;20441;-88
2022/08/17 04:35:18;;;;;;;14.87;13.77;;;;;;;;;;4970867;28;20439;-88
2022/08/17 04:37:44;;;;;;;15.67;14.47;;;;;;;;;;4977925;28;21200;-89
2022/08/17 04:43:06;;;;;;;14.60;13.60;;;;;;;;;;4987319;28;20459;-88
2022/08/17 04:45:32;;;;;;;17.73;13.40;;;;;;;;;;4971753;28;20444;-89
2022/08/17 04:47:58;;;;;;;14.70;13.70;;;;;;;;;;4971267;28;20457;-87
2022/08/17 04:50:24;;;;;;;13.80;12.70;;;;;;;;;;4974286;28;20947;-88
2022/08/17 04:52:50;;;;;;;15.20;14.13;;;;;;;;;;4972312;28;20458;-89
2022/08/17 04:55:17;;;;;;;14.17;13.07;;;;;;;;;;4979554;28;20523;-89
2022/08/17 04:57:43;;;;;;;14.27;13.17;;;;;;;;;;4971822;28;20440;-90
2022/08/17 05:00:09;;;;;;;14.57;13.37;;;;;;;;;;4962665;28;20476;-88
2022/08/17 05:02:43;;;;;;;15.30;14.03;;;;;;;;;;4965906;28;20451;-87
2022/08/17 05:05:09;;;;;;;14.67;13.20;;;;;;;;;;4974026;28;20670;-88
2022/08/17 05:07:35;;;;;;;13.13;12.13;;;;;;;;;;4967373;28;20971;-89
2022/08/17 05:10:02;;;;;;;14.00;13.00;;;;;;;;;;4979323;28;20433;-89
2022/08/17 05:12:28;;;;;;;13.73;12.70;;;;;;;;;;4977101;28;20487;-89
2022/08/17 05:14:54;;;;;;;14.17;13.10;;;;;;;;;;4981204;28;20432;-89
2022/08/17 05:17:20;;;;;;;14.30;12.97;;;;;;;;;;4981717;28;20435;-89
2022/08/17 05:19:46;;;;;;;14.40;13.30;;;;;;;;;;4980316;28;21138;-89
2022/08/17 05:22:13;;;;;;;13.53;12.60;;;;;;;;;;4980561;28;20820;-89
2022/08/17 05:24:42;;;;;;;14.10;12.73;;;;;;;;;;4985947;28;20436;-87
2022/08/17 05:27:11;;;;;;;13.53;12.57;;;;;;;;;;4970374;28;20437;-89
2022/08/17 05:29:37;;;;;;;13.37;12.33;;;;;;;;;;4981274;28;20436;-89
2022/08/17 05:32:08;;;;;;;12.80;11.77;;;;;;;;;;4979326;28;20465;-88
2022/08/17 05:34:35;;;;;;;12.57;11.67;;;;;;;;;;4966939;28;20441;-88
2022/08/17 05:37:03;;;;;;;12.23;11.60;;;;;;;;;;4986034;28;20471;-85
2022/08/17 05:39:29;;;;;;;14.10;13.00;;;;;;;;;;4992223;28;20432;-89
2022/08/17 05:41:55;;;;;;;15.60;12.83;;;;;;;;;;4984176;28;20499;-89
2022/08/17 05:44:29;;;;;;;13.57;12.60;;;;;;;;;;4987493;28;20440;-89
2022/08/17 05:46:55;;;;;;;12.40;11.60;;;;;;;;;;4989410;28;20794;-87
2022/08/17 05:49:26;;;;;;;13.10;12.00;;;;;;;;;;4982131;28;20440;-89
2022/08/17 05:52:11;;;;;;;12.03;11.13;;;;;;;;;;4963135;28;20802;-88
2022/08/17 05:54:51;;;;;;;12.10;11.50;;;;;;;;;;4995769;28;20421;-86
2022/08/17 05:57:26;;;;;;;13.50;12.30;;;;;;;;;;4966385;28;20464;-88
2022/08/17 05:59:58;;;;;;;12.07;11.40;;;;;;;;;;4976755;28;20443;-88
2022/08/17 06:02:44;;;;;;;13.63;12.43;;;;;;;;;;4974082;28;20459;-89
2022/08/17 06:05:10;;;;;;;11.13;10.43;;;;;;;;;;4963127;28;20448;-88
2022/08/17 06:07:46;;;;;;;11.67;10.97;;;;;;;;;;4969055;28;20461;-90
2022/08/17 06:10:24;;;;;;;11.50;10.70;;;;;;;;;;4981398;28;20432;-90
2022/08/17 06:13:09;;;;;;;11.47;10.17;;;;;;;;;;4981991;28;20433;-90
2022/08/17 06:15:48;;;;;;;11.67;10.97;;;;;;;;;;4991656;28;20452;-90
2022/08/17 06:18:14;;;;;;;10.63;9.87;;;;;;;;;;4974217;28;20445;-91
2022/08/17 06:20:46;;;;;;;11.30;10.50;;;;;;;;;;4987469;28;20464;-89
2022/08/17 06:23:17;;;;;;;11.23;10.37;;;;;;;;;;4985658;28;20464;-88
2022/08/17 06:25:48;;;;;;;11.87;10.83;;;;;;;;;;4985198;28;20425;-90
2022/08/17 06:28:19;;;;;;;11.67;10.97;;;;;;;;;;4986271;28;20522;-92
2022/08/17 06:30:48;;;;;;;11.40;10.70;;;;;;;;;;4987918;28;20495;-89
2022/08/17 06:33:26;;;;;;;11.70;10.90;;;;;;;;;;4979808;28;20441;-86
2022/08/17 06:36:01;;;;;;;10.47;9.67;;;;;;;;;;4992205;28;20424;-88
2022/08/17 06:38:35;;;;;;;11.60;10.60;;;;;;;;;;4979199;28;20440;-86
2022/08/17 06:41:11;;;;;;;10.47;9.50;;;;;;;;;;4967170;28;20480;-87
2022/08/17 06:43:43;;;;;;;9.33;8.83;;;;;;;;;;4976397;28;20561;-87
2022/08/17 06:46:13;;;;;;;9.77;8.70;;;;;;;;;;4976852;28;20986;-87
2022/08/17 06:48:39;;;;;;;10.60;9.73;;;;;;;;;;4974491;28;20814;-86
2022/08/17 06:51:25;;;;;;;10.20;9.37;;;;;;;;;;4975719;28;20440;-86
2022/08/17 06:53:55;;;;;;;10.53;9.63;;;;;;;;;;4974427;28;20466;-85
2022/08/17 06:56:31;;;;;;;9.00;8.20;;;;;;;;;;4984405;28;20442;-86
2022/08/17 06:58:58;;;;;;;7.97;6.73;;;;;;;;;;4979240;28;20449;-86
2022/08/17 07:01:35;;;;;;;8.20;7.90;;;;;;;;;;4983724;28;20842;-85
2022/08/17 07:04:07;;;;;;;7.50;7.10;;;;;;;;;;4978955;28;20507;-85
2022/08/17 07:06:36;;;;;;;7.43;6.70;;;;;;;;;;4973815;28;20441;-85
2022/08/17 07:09:23;;;;;;;13.10;6.57;;;;;;;;;;4976599;28;20432;-84
2022/08/17 07:11:49;;;;;;;8.43;5.90;;;;;;;;;;4975689;28;20432;-86
2022/08/17 07:14:25;;;;;;;5.83;5.63;;;;;;;;;;4976072;28;20436;-86
2022/08/17 07:16:53;;;;;;;7.57;7.17;;;;;;;;;;4972602;28;21058;-86
2022/08/17 07:19:23;;;;;;;5.70;5.40;;;;;;;;;;4994103;28;20416;-88
2022/08/17 07:21:54;;;;;;;10.93;5.93;;;;;;;;;;4977711;28;20428;-86
2022/08/17 07:24:27;;;;;;;13.07;6.07;;;;;;;;;;4977085;28;20515;-87
2022/08/17 07:27:05;;;;;;;8.20;5.63;;;;;;;;;;4972020;28;21033;-88
2022/08/17 07:29:34;;;;;;;6.43;5.90;;;;;;;;;;4980581;28;20479;-86
2022/08/17 07:32:00;;;;;;;6.80;6.40;;;;;;;;;;4632885;28;10000258;-87
2022/08/17 07:34:26;;;;;;;7.13;6.67;;;;;;;;;;4970067;28;20193;-86
2022/08/17 07:37:02;;;;;;;7.33;6.30;;;;;;;;;;4975730;28;20527;-87
2022/08/17 07:39:29;;;;;;;7.43;7.10;;;;;;;;;;4970149;28;20530;-86
2022/08/17 07:42:01;;;;;;;7.00;6.70;;;;;;;;;;4974616;28;20532;-86
2022/08/17 07:44:27;;;;;;;8.00;7.50;;;;;;;;;;4970175;28;20482;-87
2022/08/17 07:49:41;;;;;;;8.30;7.70;;;;;;;;;;4988308;28;20949;-85
2022/08/17 07:52:10;;;;;;;8.73;8.23;;;;;;;;;;4972225;28;20495;-87
2022/08/17 07:54:40;;;;;;;9.57;8.97;;;;;;;;;;4973803;28;20412;-87
2022/08/17 07:57:12;;;;;;;9.47;8.63;;;;;;;;;;4956630;28;20540;-88
2022/08/17 07:59:44;;;;;;;9.23;8.60;;;;;;;;;;4986830;28;20464;-87
2022/08/17 08:02:18;;;;;;;9.80;9.20;;;;;;;;;;4957727;28;20544;-86
2022/08/17 08:05:11;;;;;;;10.60;9.50;;;;;;;;;;4975101;28;20440;-87
2022/08/17 08:07:50;;;;;;;9.70;9.00;;;;;;;;;;4970969;28;20441;-87
2022/08/17 08:10:26;;;;;;;11.33;10.53;;;;;;;;;;4982465;28;20973;-89
2022/08/17 08:13:03;;;;;;;12.77;11.67;;;;;;;;;;4970981;28;20455;-87
2022/08/17 08:15:43;;;;;;;11.63;10.67;;;;;;;;;;4962821;28;21146;-86
2022/08/17 08:18:20;;;;;;;10.60;10.00;;;;;;;;;;4967517;28;20787;-87
2022/08/17 08:21:00;;;;;;;12.40;11.20;;;;;;;;;;4953848;28;20520;-88
2022/08/17 08:23:36;;;;;;;10.23;9.63;;;;;;;;;;4956331;28;20449;-87
2022/08/17 08:26:14;;;;;;;10.00;9.40;;;;;;;;;;4971486;28;20440;-88
2022/08/17 08:29:00;;;;;;;11.60;10.67;;;;;;;;;;4955465;28;20459;-85
2022/08/17 08:31:36;;;;;;;11.50;10.70;;;;;;;;;;4958696;28;20421;-87
2022/08/17 08:34:10;;;;;;;10.90;10.10;;;;;;;;;;4970954;28;20425;-90
2022/08/17 08:36:51;;;;;;;10.47;9.80;;;;;;;;;;4987448;28;20432;-87
2022/08/17 08:39:44;;;;;;;10.83;9.80;;;;;;;;;;4632342;28;10000524;-88
2022/08/17 08:42:36;;;;;;;11.93;10.80;;;;;;;;;;4966448;28;20231;-88
2022/08/17 08:45:25;;;;;;;10.70;10.10;;;;;;;;;;4976239;28;20571;-88
2022/08/17 08:48:16;;;;;;;11.23;10.57;;;;;;;;;;4980614;28;20531;-88
2022/08/17 08:51:03;;;;;;;10.93;10.03;;;;;;;;;;4992297;28;20428;-86
2022/08/17 08:53:39;;;;;;;12.57;11.53;;;;;;;;;;4973305;28;20567;-87
2022/08/17 08:56:08;;;;;;;12.97;12.10;;;;;;;;;;4974191;28;20423;-85
2022/08/17 08:58:42;;;;;;;12.50;11.70;;;;;;;;;;4970009;28;20440;-87
2022/08/17 09:01:15;;;;;;;12.10;11.43;;;;;;;;;;4979882;28;20463;-89
2022/08/17 09:03:53;;;;;;;15.17;13.87;;;;;;;;;;4984439;28;20475;-90
2022/08/17 09:06:34;;;;;;;12.00;10.93;;;;;;;;;;4980989;28;20427;-89
2022/08/17 09:09:34;;;;;;;14.03;12.80;;;;;;;;;;4981746;28;20434;-90
2022/08/17 09:12:16;;;;;;;12.87;12.17;;;;;;;;;;4949986;28;20436;-90
2022/08/17 09:14:48;;;;;;;13.47;12.60;;;;;;;;;;4978625;28;20523;-88
2022/08/17 09:20:39;;;;;;;14.33;13.33;;;;;;;;;;4986944;28;20850;-88
2022/08/17 09:23:08;;;;;;;14.00;12.93;;;;;;;;;;4976607;28;20452;-90
2022/08/17 09:26:04;;;;;;;15.77;14.30;;;;;;;;;;4977512;28;20464;-88
2022/08/17 09:28:33;;;;;;;14.87;13.87;;;;;;;;;;4967592;28;20977;-88
2022/08/17 09:31:02;;;;;;;13.77;12.47;;;;;;;;;;4979667;28;20436;-88
2022/08/17 09:33:31;;;;;;;15.03;13.77;;;;;;;;;;4991687;28;20432;-88
2022/08/17 09:36:09;;;;;;;13.57;12.50;;;;;;;;;;4976862;28;20468;-88
2022/08/17 09:38:52;;;;;;;14.70;13.60;;;;;;;;;;4983897;28;20436;-89
2022/08/17 09:41:39;;;;;;;15.97;14.17;;;;;;;;;;4979983;28;20639;-89
2022/08/17 09:44:18;;;;;;;14.63;13.70;;;;;;;;;;4991583;28;20467;-88
2022/08/17 09:46:52;;;;;;;15.40;14.20;;;;;;;;;;4999162;28;20499;-88
2022/08/17 09:49:28;;;;;;;15.90;14.60;;;;;;;;;;4972740;28;20439;-88
2022/08/17 09:51:57;;;;;;;17.23;15.93;;;;;;;;;;4977775;28;20430;-87
2022/08/17 09:54:23;;;;;;;15.93;14.63;;;;;;;;;;4980122;28;20418;-89
2022/08/17 09:57:06;;;;;;;13.33;12.33;;;;;;;;;;4995448;28;20452;-89
2022/08/17 09:59:51;;;;;;;14.93;14.13;;;;;;;;;;4980232;28;20417;-89
2022/08/17 10:02:26;;;;;;;15.40;13.87;;;;;;;;;;4972619;28;20436;-88
2022/08/17 10:05:01;;;;;;;16.20;14.60;;;;;;;;;;4979696;28;20528;-89
2022/08/17 10:07:36;;;;;;;17.27;15.97;;;;;;;;;;4986592;28;20468;-88
2022/08/17 10:10:07;;;;;;;16.43;15.00;;;;;;;;;;4995655;28;20479;-89
2022/08/17 10:12:36;;;;;;;15.80;14.60;;;;;;;;;;4994243;28;20539;-89
2022/08/17 10:15:15;;;;;;;17.30;15.53;;;;;;;;;;4995280;28;20617;-88
2022/08/17 10:17:41;;;;;;;21.77;20.00;;;;;;;;;;4981345;28;20476;-87
2022/08/17 10:20:23;;;;;;;18.17;16.77;;;;;;;;;;4974120;28;20488;-89
2022/08/17 10:28:36;;;;;;;19.30;17.80;;;;;;;;;;5001943;28;20419;-89
2022/08/17 10:31:04;;;;;;;18.90;17.47;;;;;;;;;;4982791;28;20432;-89
2022/08/17 10:33:37;;;;;;;19.80;18.30;;;;;;;;;;4994349;28;20444;-89
2022/08/17 10:36:12;;;;;;;21.07;19.20;;;;;;;;;;4992073;28;20461;-89
2022/08/17 10:38:58;;;;;;;20.97;19.10;;;;;;;;;;5005791;28;20437;-88
2022/08/17 10:41:38;;;;;;;20.77;18.73;;;;;;;;;;4303678;28;10000663;-88
2022/08/17 10:44:10;;;;;;;22.33;20.10;;;;;;;;;;4989437;28;20463;-90
2022/08/17 10:46:55;;;;;;;22.40;20.33;;;;;;;;;;5009954;28;20443;-89
2022/08/17 10:49:23;;;;;;;20.70;19.10;;;;;;;;;;5009808;28;20460;-89
2022/08/17 10:52:00;;;;;;;21.90;20.07;;;;;;;;;;4987307;28;20443;-88
2022/08/17 10:54:29;;;;;;;20.80;19.20;;;;;;;;;;4981869;28;20432;-87
2022/08/17 10:56:56;;;;;;;20.60;18.97;;;;;;;;;;4989587;28;20443;-87
2022/08/17 10:59:34;;;;;;;22.07;20.33;;;;;;;;;;4982887;28;20451;-86
2022/08/17 11:02:00;;;;;;;21.87;19.77;;;;;;;;;;4997863;28;20436;-85
2022/08/17 11:04:34;;;;;;;21.37;19.73;;;;;;;;;;5000941;28;20449;-87
2022/08/17 11:07:01;;;;;;;22.37;20.47;;;;;;;;;;4988712;28;20444;-88
2022/08/17 11:09:33;;;;;;;31.17;19.90;;;;;;;;;;4972252;28;20804;-89
2022/08/17 11:12:06;;;;;;;21.10;19.40;;;;;;;;;;4995405;28;20421;-89
2022/08/17 11:14:32;;;;;;;21.10;19.30;;;;;;;;;;4989150;28;20432;-88
2022/08/17 11:17:17;;;;;;;21.20;19.27;;;;;;;;;;5012377;28;20432;-88
2022/08/17 11:20:04;;;;;;;22.00;19.87;;;;;;;;;;4996047;28;20437;-86
2022/08/17 11:22:30;;;;;;;21.60;19.43;;;;;;;;;;4985809;28;20435;-89
2022/08/17 11:25:08;;;;;;;21.73;20.07;;;;;;;;;;5004892;28;20428;-87
2022/08/17 11:27:35;;;;;;;23.03;21.13;;;;;;;;;;4968843;28;20440;-87
2022/08/17 11:30:05;;;;;;;24.00;21.87;;;;;;;;;;4976071;28;20417;-87
2022/08/17 11:32:36;;;;;;;21.77;19.50;;;;;;;;;;5002709;28;20432;-87
2022/08/17 11:35:20;;;;;;;23.87;21.50;;;;;;;;;;4984369;28;20421;-87
2022/08/17 11:37:49;;;;;;;23.57;21.37;;;;;;;;;;4994827;28;20431;-87
2022/08/17 11:40:23;;;;;;;25.20;22.97;;;;;;;;;;4998563;28;20977;-86
2022/08/17 11:43:02;;;;;;;26.30;24.10;;;;;;;;;;4990100;28;20475;-87
2022/08/17 11:45:37;;;;;;;24.87;22.57;;;;;;;;;;4972613;28;20428;-87
2022/08/17 11:53:46;;;;;;;25.60;23.40;;;;;;;;;;4994908;28;20443;-92
2022/08/17 11:56:31;;;;;;;28.30;25.83;;;;;;;;;;4985115;28;20440;-93
2022/08/17 11:58:59;;;;;;;27.63;25.40;;;;;;;;;;4984240;28;20448;-91
2022/08/17 12:01:28;;;;;;;29.47;26.67;;;;;;;;;;5001697;28;20986;-92
2022/08/17 12:04:12;;;;;;;28.53;26.20;;;;;;;;;;5006451;28;20437;-89
2022/08/17 12:06:48;;;;;;;30.33;27.77;;;;;;;;;;4991543;28;20440;-91
2022/08/17 12:09:17;;;;;;;30.47;27.70;;;;;;;;;;4991510;28;20475;-93
2022/08/17 12:11:46;;;;;;;30.50;27.70;;;;;;;;;;5007285;28;20455;-93
2022/08/17 12:14:14;;;;;;;33.22;30.63;;;;;;;;;;4987132;28;20394;-92
2022/08/17 12:16:42;;;;;;;35.47;32.42;;;;;;;;;;5002538;28;20398;-89
2022/08/17 12:19:15;;;;;;;31.60;28.97;;;;;;;;;;5002126;28;20189;-92
2022/08/17 12:21:47;;;;;;;31.73;28.77;;;;;;;;;;4990790;28;20473;-95
2022/08/17 12:24:30;;;;;;;33.37;30.40;;;;;;;;;;4974890;28;20432;-93
2022/08/17 12:29:30;;;;;;;32.53;29.77;;;;;;;;;;5493430;23;20512;-91
2022/08/17 12:32:00;;;;;;;32.33;29.87;;;;;;;;;;5010815;28;20523;-90
2022/08/17 12:34:28;;;;;;;38.33;34.87;;;;;;;;;;4977818;28;20461;-92
2022/08/17 12:37:02;;;;;;;37.40;34.10;;;;;;;;;;5284871;23;20493;-91
2022/08/17 12:44:44;;;;;;;37.30;33.70;;;;;;;;;;5436772;23;20492;-92
2022/08/17 12:47:13;;;;;;;38.00;34.60;;;;;;;;;;5262036;23;20541;-93
2022/08/17 12:58:27;;;;;;;36.23;33.27;;;;;;;;;;3141481;23;21318;-88
2022/08/17 13:00:58;;;;;;;35.07;31.77;;;;;;;;;;4986034;28;20547;-92
2022/08/17 13:06:06;;;;;;;36.57;33.57;;;;;;;;;;5141671;23;20455;-91
2022/08/17 13:08:49;;;;;;;35.10;32.40;;;;;;;;;;5016065;23;20476;-92
2022/08/17 13:11:17;;;;;;;34.27;31.37;;;;;;;;;;4976241;28;20432;-92
2022/08/17 13:13:53;;;;;;;36.23;33.17;;;;;;;;;;4989303;28;20480;-94
2022/08/17 13:16:33;;;;;;;37.00;34.23;;;;;;;;;;4976811;28;20440;-91
2022/08/17 13:19:13;;;;;;;33.40;30.73;;;;;;;;;;4976650;28;20433;-92
2022/08/17 13:21:43;;;;;;;34.93;32.20;;;;;;;;;;4966917;28;20963;-92
2022/08/17 13:24:23;;;;;;;35.57;32.53;;;;;;;;;;4988813;28;20544;-93
2022/08/17 13:26:53;;;;;;;38.07;34.77;;;;;;;;;;5111428;23;20563;-94
2022/08/17 13:34:29;;;;;;;40.63;37.13;;;;;;;;;;5342141;23;20499;-90
2022/08/17 13:39:40;;;;;;;41.80;37.80;;;;;;;;;;5140029;23;20500;-91
2022/08/17 13:42:24;;;;;;;38.03;35.00;;;;;;;;;;4995642;28;20436;-94
2022/08/17 13:44:56;;;;;;;37.70;34.10;;;;;;;;;;5033258;28;20439;-90
2022/08/17 13:47:23;;;;;;;38.00;34.77;;;;;;;;;;4998041;23;20489;-93
2022/08/17 13:52:34;;;;;;;40.80;37.03;;;;;;;;;;5069699;28;20469;-94
2022/08/17 13:55:02;;;;;;;36.60;33.80;;;;;;;;;;5053838;28;20437;-90
2022/08/17 13:57:28;;;;;;;35.53;32.63;;;;;;;;;;5031443;28;20426;-91
2022/08/17 14:00:20;;;;;;;37.90;34.80;;;;;;;;;;5047828;28;21074;-90
2022/08/17 14:02:46;;;;;;;34.50;31.60;;;;;;;;;;5032721;28;20426;-94
2022/08/17 14:05:12;;;;;;;38.70;35.57;;;;;;;;;;5036251;28;20992;-92
2022/08/17 14:07:39;;;;;;;32.47;30.07;;;;;;;;;;5011434;28;20424;-94
2022/08/17 14:10:07;;;;;;;36.63;33.57;;;;;;;;;;5026889;28;20431;-91
2022/08/17 14:12:35;;;;;;;36.13;33.00;;;;;;;;;;5025045;28;20427;-91
2022/08/17 14:15:01;;;;;;;38.53;35.23;;;;;;;;;;5005522;28;20611;-93
2022/08/17 14:17:30;;;;;;;33.63;31.00;;;;;;;;;;5023223;28;20713;-94
2022/08/17 14:19:56;;;;;;;34.30;31.37;;;;;;;;;;5005588;28;20486;-95
2022/08/17 14:22:37;;;;;;;34.13;31.10;;;;;;;;;;5027437;28;20427;-92
2022/08/17 14:25:03;;;;;;;32.67;29.80;;;;;;;;;;5025656;28;20414;-91
2022/08/17 14:27:32;;;;;;;30.30;27.67;;;;;;;;;;5025404;28;20415;-93
2022/08/17 14:30:11;;;;;;;29.40;27.13;;;;;;;;;;5028576;28;20465;-91
2022/08/17 14:32:40;;;;;;;34.30;31.80;;;;;;;;;;5044424;28;20490;-90
2022/08/17 14:35:07;;;;;;;38.13;34.97;;;;;;;;;;5028635;28;20474;-93
2022/08/17 14:37:36;;;;;;;34.60;31.95;;;;;;;;;;5007537;28;20393;-94
2022/08/17 14:40:04;;;;;;;36.23;32.80;;;;;;;;;;5026033;28;20200;-92
2022/08/17 14:42:31;;;;;;;33.00;30.30;;;;;;;;;;5025869;28;20430;-90
2022/08/17 14:45:04;;;;;;;33.83;31.00;;;;;;;;;;4999305;28;20484;-89
2022/08/17 14:47:35;;;;;;;39.23;35.70;;;;;;;;;;4983140;28;20419;-91
2022/08/17 14:50:03;;;;;;;38.80;35.30;;;;;;;;;;5024391;28;20426;-92
2022/08/17 14:52:29;;;;;;;42.73;38.77;;;;;;;;;;5024729;28;20422;-94
2022/08/17 14:54:55;;;;;;;45.70;41.50;;;;;;;;;;5027798;28;20467;-89
2022/08/17 14:57:23;;;;;;;45.20;41.40;;;;;;;;;;5025879;28;20451;-92
2022/08/17 14:59:50;;;;;;;44.67;40.47;;;;;;;;;;5007994;28;20438;-93
2022/08/17 15:02:27;;;;;;;47.23;42.90;;;;;;;;;;5023462;28;20414;-89
2022/08/17 15:04:55;;;;;;;47.27;43.20;;;;;;;;;;5005091;28;20448;-92
2022/08/17 15:07:21;;;;;;;44.23;40.33;;;;;;;;;;5027349;28;20419;-94
2022/08/17 15:09:50;;;;;;;47.17;42.77;;;;;;;;;;5005359;28;20435;-89
2022/08/17 15:12:19;;;;;;;44.33;40.23;;;;;;;;;;5031479;28;20425;-90
2022/08/17 15:14:45;;;;;;;46.77;42.67;;;;;;;;;;5005319;28;20900;-93
2022/08/17 15:17:14;;;;;;;51.20;45.97;;;;;;;;;;5027492;28;20464;-92
2022/08/17 15:19:41;;;;;;;46.90;42.70;;;;;;;;;;5023763;28;20423;-91
2022/08/17 15:22:16;;;;;;;50.37;45.97;;;;;;;;;;5027257;28;20419;-89
2022/08/17 15:24:42;;;;;;;52.63;47.53;;;;;;;;;;4998801;28;20437;-91
2022/08/17 15:27:10;;;;;;;48.67;44.23;;;;;;;;;;5018155;28;20416;-89
2022/08/17 15:29:36;;;;;;;53.77;48.93;;;;;;;;;;5023610;28;20545;-90
2022/08/17 15:32:02;;;;;;;53.20;48.40;;;;;;;;;;5040846;28;20430;-89
2022/08/17 15:34:28;;;;;;;54.10;49.07;;;;;;;;;;5002926;28;20427;-88
2022/08/17 15:36:55;;;;;;;52.57;47.87;;;;;;;;;;5016267;28;20440;-91
2022/08/17 15:39:27;;;;;;;54.57;49.50;;;;;;;;;;5028233;28;20458;-93